createdAt,value
2019-03-16T00:00:28.264Z,9.96
2019-03-16T00:01:28.246Z,9.94
2019-03-16T00:02:28.221Z,10.03
2019-03-16T00:03:28.209Z,10.03
2019-03-16T00:04:28.183Z,9.99
2019-03-16T00:05:28.162Z,10.02
2019-03-16T00:06:28.143Z,9.94
2019-03-16T00:07:33.220Z,10.02
2019-03-16T00:08:28.100Z,9.98
2019-03-16T00:09:28.081Z,10.01
2019-03-16T00:10:28.071Z,9.96
2019-03-16T00:11:28.043Z,10.01
2019-03-16T00:12:28.021Z,10.02
2019-03-16T00:13:28.002Z,10.01
2019-03-16T00:14:27.991Z,9.99
2019-03-16T00:15:27.965Z,9.96
2019-03-16T00:16:27.940Z,9.93
2019-03-16T00:17:27.918Z,9.96
2019-03-16T00:18:27.910Z,9.99
2019-03-16T00:19:27.879Z,9.96
2019-03-16T00:20:27.858Z,9.94
2019-03-16T00:21:27.841Z,9.98
2019-03-16T00:22:27.817Z,9.94
2019-03-16T00:23:27.799Z,9.98
2019-03-16T00:24:27.777Z,9.98
2019-03-16T00:25:27.758Z,9.99
2019-03-16T00:26:27.739Z,10.02
2019-03-16T00:27:27.720Z,9.94
2019-03-16T00:28:27.696Z,9.93
2019-03-16T00:29:27.679Z,9.94
2019-03-16T00:30:27.674Z,10.05
2019-03-16T00:31:27.640Z,10.02
2019-03-16T00:32:27.622Z,10.08
2019-03-16T00:33:27.604Z,10.03
2019-03-16T00:34:27.577Z,10.03
2019-03-16T00:35:27.565Z,10.01
2019-03-16T00:36:27.540Z,10.01
2019-03-16T00:37:27.523Z,9.99
2019-03-16T00:38:27.502Z,10.02
2019-03-16T00:39:27.478Z,9.99
2019-03-16T00:40:27.459Z,9.99
2019-03-16T00:41:27.438Z,10.03
2019-03-16T00:42:27.416Z,9.96
2019-03-16T00:43:27.394Z,9.93
2019-03-16T00:44:27.377Z,9.94
2019-03-16T00:45:27.352Z,9.90
2019-03-16T00:46:27.333Z,9.98
2019-03-16T00:47:27.314Z,9.85
2019-03-16T00:48:27.294Z,9.93
2019-03-16T00:49:27.278Z,9.90
2019-03-16T00:50:27.255Z,9.88
2019-03-16T00:51:27.234Z,9.90
2019-03-16T00:52:27.224Z,9.90
2019-03-16T00:53:27.195Z,9.87
2019-03-16T00:54:27.171Z,9.91
2019-03-16T00:55:27.153Z,9.99
2019-03-16T00:56:27.130Z,9.93
2019-03-16T00:57:27.112Z,9.98
2019-03-16T00:58:27.092Z,9.90
2019-03-16T00:59:27.071Z,9.88
2019-03-16T01:00:27.054Z,9.90
2019-03-16T01:01:27.029Z,9.87
2019-03-16T01:02:27.694Z,9.85
2019-03-16T01:03:26.996Z,9.91
2019-03-16T01:04:26.978Z,9.90
2019-03-16T01:05:26.949Z,9.88
2019-03-16T01:06:26.931Z,9.93
2019-03-16T01:07:26.918Z,9.87
2019-03-16T01:08:26.891Z,9.88
2019-03-16T01:09:26.869Z,9.88
2019-03-16T01:10:26.855Z,9.87
2019-03-16T01:11:26.830Z,9.90
2019-03-16T01:12:26.810Z,9.90
2019-03-16T01:13:26.791Z,9.98
2019-03-16T01:14:26.781Z,9.91
2019-03-16T01:15:26.752Z,9.90
2019-03-16T01:16:26.741Z,9.99
2019-03-16T01:17:26.710Z,9.88
2019-03-16T01:18:26.689Z,9.90
2019-03-16T01:19:26.670Z,9.96
2019-03-16T01:20:26.651Z,9.99
2019-03-16T01:21:26.628Z,9.96
2019-03-16T01:22:26.608Z,9.94
2019-03-16T01:23:26.589Z,10.02
2019-03-16T01:24:26.567Z,9.94
2019-03-16T01:25:26.548Z,9.98
2019-03-16T01:26:26.525Z,9.96
2019-03-16T01:27:26.510Z,9.96
2019-03-16T01:28:26.490Z,9.94
2019-03-16T01:29:26.467Z,9.91
2019-03-16T01:30:26.443Z,9.98
2019-03-16T01:31:26.428Z,9.99
2019-03-16T01:32:39.720Z,9.99
2019-03-16T01:33:26.389Z,9.96
2019-03-16T01:34:26.362Z,9.94
2019-03-16T01:35:26.347Z,9.93
2019-03-16T01:36:26.330Z,9.90
2019-03-16T01:37:26.310Z,9.91
2019-03-16T01:38:26.284Z,9.91
2019-03-16T01:39:26.268Z,9.91
2019-03-16T01:40:26.243Z,9.94
2019-03-16T01:41:26.228Z,9.96
2019-03-16T01:42:26.204Z,9.91
2019-03-16T01:43:26.183Z,9.96
2019-03-16T01:44:26.174Z,9.91
2019-03-16T01:45:26.144Z,9.94
2019-03-16T01:46:26.124Z,9.99
2019-03-16T01:47:26.101Z,9.98
2019-03-16T01:48:26.080Z,9.88
2019-03-16T01:49:26.067Z,9.93
2019-03-16T01:50:26.041Z,9.88
2019-03-16T01:51:26.020Z,9.87
2019-03-16T01:52:26.001Z,9.90
2019-03-16T01:53:25.980Z,9.93
2019-03-16T01:54:25.959Z,9.91
2019-03-16T01:55:25.945Z,9.84
2019-03-16T01:56:25.924Z,9.84
2019-03-16T01:57:25.907Z,9.88
2019-03-16T01:58:25.879Z,9.78
2019-03-16T01:59:25.858Z,9.75
2019-03-16T02:00:25.838Z,9.85
2019-03-16T02:01:25.819Z,9.81
2019-03-16T02:02:25.802Z,9.90
2019-03-16T02:03:25.811Z,9.75
2019-03-16T02:04:25.764Z,9.81
2019-03-16T02:05:25.739Z,9.85
2019-03-16T02:06:25.719Z,9.85
2019-03-16T02:07:25.700Z,9.75
2019-03-16T02:08:25.678Z,9.78
2019-03-16T02:09:25.660Z,9.77
2019-03-16T02:10:25.637Z,9.78
2019-03-16T02:11:25.621Z,9.73
2019-03-16T02:12:25.598Z,9.75
2019-03-16T02:13:25.576Z,9.80
2019-03-16T02:14:25.556Z,9.83
2019-03-16T02:15:25.537Z,9.75
2019-03-16T02:16:25.565Z,9.91
2019-03-16T02:17:25.494Z,9.70
2019-03-16T02:18:25.480Z,9.78
2019-03-16T02:19:25.460Z,9.80
2019-03-16T02:20:25.438Z,9.72
2019-03-16T02:21:25.421Z,9.75
2019-03-16T02:22:25.396Z,9.81
2019-03-16T02:23:25.378Z,9.72
2019-03-16T02:24:25.362Z,9.77
2019-03-16T02:25:25.335Z,9.73
2019-03-16T02:26:25.316Z,9.75
2019-03-16T02:27:25.295Z,9.70
2019-03-16T02:28:25.280Z,9.85
2019-03-16T02:29:25.255Z,9.78
2019-03-16T02:30:25.243Z,9.83
2019-03-16T02:31:25.216Z,9.78
2019-03-16T02:32:25.198Z,9.84
2019-03-16T02:33:25.173Z,9.80
2019-03-16T02:34:25.157Z,9.73
2019-03-16T02:35:25.148Z,9.72
2019-03-16T02:36:25.113Z,9.72
2019-03-16T02:37:25.099Z,9.80
2019-03-16T02:38:25.075Z,9.83
2019-03-16T02:39:25.056Z,9.83
2019-03-16T02:40:25.037Z,9.70
2019-03-16T02:41:25.015Z,9.80
2019-03-16T02:42:24.994Z,9.77
2019-03-16T02:43:24.974Z,9.78
2019-03-16T02:44:24.964Z,9.75
2019-03-16T02:45:24.935Z,9.75
2019-03-16T02:46:24.918Z,9.78
2019-03-16T02:47:24.906Z,9.75
2019-03-16T02:48:24.875Z,9.81
2019-03-16T02:49:24.851Z,9.75
2019-03-16T02:50:24.836Z,9.83
2019-03-16T02:51:24.816Z,9.75
2019-03-16T02:52:24.805Z,9.84
2019-03-16T02:53:24.775Z,9.75
2019-03-16T02:54:24.757Z,9.75
2019-03-16T02:55:24.729Z,9.78
2019-03-16T02:56:24.711Z,9.80
2019-03-16T02:57:24.689Z,9.80
2019-03-16T02:58:24.669Z,9.80
2019-03-16T02:59:24.654Z,9.73
2019-03-16T03:00:24.629Z,9.83
2019-03-16T03:01:24.613Z,9.84
2019-03-16T03:02:24.595Z,9.81
2019-03-16T03:03:29.692Z,9.87
2019-03-16T03:04:24.552Z,9.81
2019-03-16T03:05:24.538Z,9.78
2019-03-16T03:06:24.510Z,9.80
2019-03-16T03:07:24.491Z,9.75
2019-03-16T03:08:24.476Z,9.84
2019-03-16T03:09:24.450Z,9.80
2019-03-16T03:10:24.429Z,9.75
2019-03-16T03:11:24.411Z,9.77
2019-03-16T03:12:24.388Z,9.75
2019-03-16T03:13:24.371Z,9.78
2019-03-16T03:14:24.348Z,9.77
2019-03-16T03:15:24.333Z,9.75
2019-03-16T03:16:24.325Z,9.72
2019-03-16T03:17:24.287Z,9.72
2019-03-16T03:18:24.289Z,9.80
2019-03-16T03:19:24.250Z,9.77
2019-03-16T03:20:24.234Z,9.80
2019-03-16T03:21:24.226Z,9.81
2019-03-16T03:22:24.197Z,9.80
2019-03-16T03:23:24.172Z,9.73
2019-03-16T03:24:24.154Z,9.78
2019-03-16T03:25:24.128Z,9.80
2019-03-16T03:26:24.114Z,9.78
2019-03-16T03:27:24.090Z,9.75
2019-03-16T03:28:24.064Z,9.70
2019-03-16T03:29:24.046Z,9.78
2019-03-16T03:30:24.030Z,9.80
2019-03-16T03:31:24.009Z,9.78
2019-03-16T03:32:23.987Z,9.83
2019-03-16T03:33:24.082Z,9.78
2019-03-16T03:34:23.951Z,9.75
2019-03-16T03:35:29.078Z,9.87
2019-03-16T03:36:23.903Z,9.85
2019-03-16T03:37:23.885Z,9.75
2019-03-16T03:38:23.863Z,9.65
2019-03-16T03:39:23.846Z,9.72
2019-03-16T03:40:23.825Z,9.60
2019-03-16T03:41:23.804Z,9.63
2019-03-16T03:42:23.786Z,9.65
2019-03-16T03:43:23.765Z,9.66
2019-03-16T03:44:23.744Z,9.62
2019-03-16T03:45:23.723Z,9.67
2019-03-16T03:46:23.709Z,9.62
2019-03-16T03:47:23.686Z,9.62
2019-03-16T03:48:23.666Z,9.67
2019-03-16T03:49:23.643Z,9.72
2019-03-16T03:50:23.628Z,9.65
2019-03-16T03:51:23.666Z,9.66
2019-03-16T03:52:23.581Z,9.62
2019-03-16T03:53:23.562Z,9.62
2019-03-16T03:54:23.543Z,9.65
2019-03-16T03:55:23.526Z,9.65
2019-03-16T03:56:23.501Z,9.62
2019-03-16T03:57:23.485Z,9.65
2019-03-16T03:58:23.461Z,9.63
2019-03-16T03:59:23.442Z,9.69
2019-03-16T04:00:23.420Z,9.67
2019-03-16T04:01:23.404Z,9.65
2019-03-16T04:02:23.384Z,9.59
2019-03-16T04:03:23.362Z,9.65
2019-03-16T04:04:23.343Z,9.67
2019-03-16T04:05:23.320Z,9.60
2019-03-16T04:06:23.301Z,9.67
2019-03-16T04:07:23.283Z,9.63
2019-03-16T04:08:23.260Z,9.72
2019-03-16T04:09:23.244Z,9.75
2019-03-16T04:10:23.221Z,9.72
2019-03-16T04:11:23.200Z,9.72
2019-03-16T04:12:23.189Z,9.72
2019-03-16T04:13:23.164Z,9.75
2019-03-16T04:14:23.139Z,9.70
2019-03-16T04:15:23.126Z,9.70
2019-03-16T04:16:23.104Z,9.72
2019-03-16T04:17:23.081Z,9.62
2019-03-16T04:18:23.065Z,9.67
2019-03-16T04:19:23.038Z,9.72
2019-03-16T04:20:23.021Z,9.63
2019-03-16T04:21:23.001Z,9.69
2019-03-16T04:22:22.981Z,9.69
2019-03-16T04:23:22.965Z,9.72
2019-03-16T04:24:22.945Z,9.70
2019-03-16T04:25:22.926Z,9.81
2019-03-16T04:26:22.908Z,9.73
2019-03-16T04:27:22.878Z,9.75
2019-03-16T04:28:22.870Z,9.84
2019-03-16T04:29:22.843Z,9.75
2019-03-16T04:30:22.828Z,9.73
2019-03-16T04:31:22.799Z,9.75
2019-03-16T04:32:22.774Z,9.80
2019-03-16T04:33:22.755Z,9.72
2019-03-16T04:34:29.024Z,9.75
2019-03-16T04:35:22.716Z,9.66
2019-03-16T04:36:22.696Z,9.69
2019-03-16T04:37:22.677Z,9.65
2019-03-16T04:38:22.655Z,9.69
2019-03-16T04:39:22.634Z,9.75
2019-03-16T04:40:22.614Z,9.69
2019-03-16T04:41:22.598Z,9.63
2019-03-16T04:42:22.576Z,9.75
2019-03-16T04:43:22.554Z,9.77
2019-03-16T04:44:22.536Z,9.70
2019-03-16T04:45:22.518Z,9.70
2019-03-16T04:46:22.493Z,9.67
2019-03-16T04:47:22.472Z,9.69
2019-03-16T04:48:22.457Z,9.66
2019-03-16T04:49:22.431Z,9.66
2019-03-16T04:50:22.412Z,9.75
2019-03-16T04:51:22.401Z,9.60
2019-03-16T04:52:22.373Z,9.66
2019-03-16T04:53:22.351Z,9.65
2019-03-16T04:54:22.330Z,9.69
2019-03-16T04:55:22.314Z,9.65
2019-03-16T04:56:22.289Z,9.67
2019-03-16T04:57:22.269Z,9.65
2019-03-16T04:58:22.249Z,9.67
2019-03-16T04:59:22.228Z,9.66
2019-03-16T05:00:22.217Z,9.69
2019-03-16T05:01:22.189Z,9.59
2019-03-16T05:02:22.174Z,9.59
2019-03-16T05:03:22.148Z,9.63
2019-03-16T05:04:22.147Z,9.63
2019-03-16T05:05:22.107Z,9.62
2019-03-16T05:06:22.088Z,9.62
2019-03-16T05:07:22.067Z,9.63
2019-03-16T05:08:22.049Z,9.60
2019-03-16T05:09:22.027Z,9.67
2019-03-16T05:10:22.006Z,9.65
2019-03-16T05:11:21.990Z,9.57
2019-03-16T05:12:21.965Z,9.60
2019-03-16T05:13:21.946Z,9.57
2019-03-16T05:14:21.925Z,9.62
2019-03-16T05:15:21.915Z,9.57
2019-03-16T05:16:21.888Z,9.54
2019-03-16T05:17:21.864Z,9.59
2019-03-16T05:18:21.849Z,9.62
2019-03-16T05:19:21.834Z,9.57
2019-03-16T05:20:21.804Z,9.62
2019-03-16T05:21:21.786Z,9.59
2019-03-16T05:22:21.781Z,9.48
2019-03-16T05:23:21.748Z,9.40
2019-03-16T05:24:21.726Z,9.50
2019-03-16T05:25:21.705Z,9.48
2019-03-16T05:26:21.682Z,9.44
2019-03-16T05:27:21.662Z,9.42
2019-03-16T05:28:21.642Z,9.51
2019-03-16T05:29:21.621Z,9.41
2019-03-16T05:30:21.603Z,9.52
2019-03-16T05:31:21.581Z,9.52
2019-03-16T05:32:21.566Z,9.45
2019-03-16T05:33:21.545Z,9.44
2019-03-16T05:34:21.525Z,9.52
2019-03-16T05:35:21.499Z,9.52
2019-03-16T05:36:21.480Z,9.47
2019-03-16T05:37:21.461Z,9.57
2019-03-16T05:38:21.440Z,9.54
2019-03-16T05:39:21.421Z,9.47
2019-03-16T05:40:21.400Z,9.54
2019-03-16T05:41:21.385Z,9.57
2019-03-16T05:42:21.360Z,9.55
2019-03-16T05:43:21.338Z,9.63
2019-03-16T05:44:21.323Z,9.59
2019-03-16T05:45:21.303Z,9.52
2019-03-16T05:46:21.280Z,9.59
2019-03-16T05:47:21.259Z,9.55
2019-03-16T05:48:21.237Z,9.54
2019-03-16T05:49:21.219Z,9.59
2019-03-16T05:50:21.198Z,9.57
2019-03-16T05:51:21.179Z,9.63
2019-03-16T05:52:21.158Z,9.48
2019-03-16T05:53:21.153Z,9.60
2019-03-16T05:54:21.118Z,9.54
2019-03-16T05:55:21.099Z,9.51
2019-03-16T05:56:21.082Z,9.57
2019-03-16T05:57:21.059Z,9.51
2019-03-16T05:58:21.039Z,9.42
2019-03-16T05:59:21.020Z,9.51
2019-03-16T06:00:20.997Z,9.52
2019-03-16T06:01:20.978Z,9.59
2019-03-16T06:02:20.958Z,9.41
2019-03-16T06:03:20.936Z,9.40
2019-03-16T06:04:20.919Z,9.33
2019-03-16T06:05:20.916Z,9.24
2019-03-16T06:06:20.879Z,9.30
2019-03-16T06:07:20.863Z,9.30
2019-03-16T06:08:20.837Z,9.26
2019-03-16T06:09:20.817Z,9.33
2019-03-16T06:10:20.796Z,9.26
2019-03-16T06:11:20.777Z,9.27
2019-03-16T06:12:20.756Z,9.34
2019-03-16T06:13:20.738Z,9.23
2019-03-16T06:14:20.729Z,9.33
2019-03-16T06:15:20.697Z,9.29
2019-03-16T06:16:20.675Z,9.29
2019-03-16T06:17:20.665Z,9.26
2019-03-16T06:18:20.641Z,9.23
2019-03-16T06:19:20.698Z,9.24
2019-03-16T06:20:20.595Z,9.37
2019-03-16T06:21:20.576Z,9.32
2019-03-16T06:22:20.557Z,9.15
2019-03-16T06:23:20.540Z,9.11
2019-03-16T06:24:20.525Z,9.12
2019-03-16T06:25:20.545Z,9.08
2019-03-16T06:26:20.476Z,9.22
2019-03-16T06:27:20.454Z,9.18
2019-03-16T06:28:20.486Z,9.23
2019-03-16T06:29:20.416Z,9.23
2019-03-16T06:30:20.990Z,9.27
2019-03-16T06:31:20.376Z,9.26
2019-03-16T06:32:20.352Z,9.19
2019-03-16T06:33:20.344Z,9.18
2019-03-16T06:34:20.317Z,9.06
2019-03-16T06:35:24.935Z,9.04
2019-03-16T06:36:20.275Z,9.03
2019-03-16T06:37:20.251Z,9.06
2019-03-16T06:38:20.232Z,8.95
2019-03-16T06:39:20.220Z,8.96
2019-03-16T06:40:20.190Z,8.89
2019-03-16T06:41:20.174Z,8.85
2019-03-16T06:42:20.153Z,8.85
2019-03-16T06:43:20.135Z,8.88
2019-03-16T06:44:20.111Z,8.88
2019-03-16T06:45:20.090Z,8.98
2019-03-16T06:46:20.070Z,8.89
2019-03-16T06:47:23.029Z,8.93
2019-03-16T06:48:20.031Z,9.04
2019-03-16T06:49:20.009Z,9.06
2019-03-16T06:50:19.986Z,9.08
2019-03-16T06:51:19.969Z,9.06
2019-03-16T06:52:19.951Z,9.04
2019-03-16T06:53:19.930Z,8.90
2019-03-16T06:54:19.918Z,8.93
2019-03-16T06:55:19.889Z,8.99
2019-03-16T06:56:19.870Z,9.12
2019-03-16T06:57:19.846Z,8.95
2019-03-16T06:58:19.834Z,8.92
2019-03-16T06:59:19.806Z,9.01
2019-03-16T07:00:19.786Z,9.11
2019-03-16T07:01:19.770Z,8.96
2019-03-16T07:02:19.750Z,8.96
2019-03-16T07:03:19.730Z,8.86
2019-03-16T07:04:19.708Z,8.92
2019-03-16T07:05:23.322Z,8.74
2019-03-16T07:06:19.668Z,8.80
2019-03-16T07:07:19.645Z,8.78
2019-03-16T07:08:19.627Z,8.75
2019-03-16T07:09:19.611Z,8.86
2019-03-16T07:10:19.592Z,8.85
2019-03-16T07:11:19.568Z,8.88
2019-03-16T07:12:19.550Z,8.93
2019-03-16T07:13:19.531Z,8.90
2019-03-16T07:14:19.505Z,8.99
2019-03-16T07:15:19.484Z,8.98
2019-03-16T07:16:19.470Z,8.96
2019-03-16T07:17:19.442Z,8.89
2019-03-16T07:18:19.423Z,8.88
2019-03-16T07:19:19.403Z,8.89
2019-03-16T07:20:19.382Z,8.80
2019-03-16T07:21:19.365Z,8.70
2019-03-16T07:22:19.338Z,8.71
2019-03-16T07:23:19.429Z,8.81
2019-03-16T07:24:19.419Z,8.70
2019-03-16T07:25:19.278Z,8.67
2019-03-16T07:26:19.273Z,8.83
2019-03-16T07:27:26.192Z,8.85
2019-03-16T07:28:19.223Z,8.88
2019-03-16T07:29:19.206Z,8.89
2019-03-16T07:30:19.175Z,8.88
2019-03-16T07:31:19.157Z,8.81
2019-03-16T07:32:19.139Z,8.85
2019-03-16T07:33:19.114Z,8.70
2019-03-16T07:34:19.095Z,8.72
2019-03-16T07:35:19.075Z,8.72
2019-03-16T07:36:19.061Z,8.80
2019-03-16T07:37:19.033Z,8.81
2019-03-16T07:38:19.012Z,8.72
2019-03-16T07:39:18.995Z,8.81
2019-03-16T07:40:18.977Z,8.70
2019-03-16T07:41:18.951Z,8.59
2019-03-16T07:42:18.930Z,8.50
2019-03-16T07:43:18.909Z,8.56
2019-03-16T07:44:18.891Z,8.49
2019-03-16T07:45:18.869Z,8.52
2019-03-16T07:46:18.851Z,8.23
2019-03-16T07:47:18.828Z,8.23
2019-03-16T07:48:18.806Z,8.20
2019-03-16T07:49:18.792Z,8.21
2019-03-16T07:50:18.848Z,8.23
2019-03-16T07:51:18.752Z,8.38
2019-03-16T07:52:18.726Z,8.46
2019-03-16T07:53:18.792Z,8.47
2019-03-16T07:54:18.685Z,8.50
2019-03-16T07:55:18.669Z,8.56
2019-03-16T07:56:18.652Z,8.49
2019-03-16T07:57:18.628Z,8.57
2019-03-16T07:58:18.604Z,8.53
2019-03-16T07:59:18.581Z,8.62
2019-03-16T08:00:18.561Z,8.68
2019-03-16T08:01:18.566Z,8.75
2019-03-16T08:02:18.523Z,8.68
2019-03-16T08:03:18.499Z,8.77
2019-03-16T08:04:18.476Z,8.74
2019-03-16T08:05:19.391Z,8.83
2019-03-16T08:06:18.441Z,8.90
2019-03-16T08:07:18.420Z,8.93
2019-03-16T08:08:18.397Z,8.99
2019-03-16T08:09:18.476Z,8.90
2019-03-16T08:10:18.355Z,8.88
2019-03-16T08:11:18.424Z,8.85
2019-03-16T08:12:18.313Z,8.85
2019-03-16T08:13:18.294Z,8.96
2019-03-16T08:14:18.271Z,8.99
2019-03-16T08:15:18.252Z,8.88
2019-03-16T08:16:18.230Z,8.90
2019-03-16T08:17:18.216Z,8.90
2019-03-16T08:18:18.197Z,8.85
2019-03-16T08:19:18.175Z,8.90
2019-03-16T08:20:18.161Z,8.98
2019-03-16T08:21:18.141Z,8.90
2019-03-16T08:22:18.111Z,9.04
2019-03-16T08:23:18.090Z,9.03
2019-03-16T08:24:18.073Z,8.99
2019-03-16T08:25:18.064Z,9.06
2019-03-16T08:26:18.036Z,9.06
2019-03-16T08:27:18.013Z,9.19
2019-03-16T08:28:17.984Z,9.19
2019-03-16T08:29:17.964Z,9.19
2019-03-16T08:30:17.944Z,9.06
2019-03-16T08:31:17.923Z,9.08
2019-03-16T08:32:17.910Z,9.16
2019-03-16T08:33:17.885Z,9.16
2019-03-16T08:34:17.861Z,9.23
2019-03-16T08:35:17.857Z,9.22
2019-03-16T08:36:17.820Z,9.18
2019-03-16T08:37:17.801Z,9.22
2019-03-16T08:38:17.782Z,9.19
2019-03-16T08:39:17.765Z,9.15
2019-03-16T08:40:17.740Z,9.18
2019-03-16T08:41:17.718Z,9.24
2019-03-16T08:42:17.698Z,9.27
2019-03-16T08:43:17.678Z,9.26
2019-03-16T08:44:17.656Z,9.22
2019-03-16T08:45:17.635Z,9.33
2019-03-16T08:46:17.627Z,9.29
2019-03-16T08:47:17.597Z,9.27
2019-03-16T08:48:22.816Z,9.33
2019-03-16T08:49:17.552Z,9.34
2019-03-16T08:50:17.532Z,9.30
2019-03-16T08:51:17.518Z,9.32
2019-03-16T08:52:17.506Z,9.33
2019-03-16T08:53:17.478Z,9.42
2019-03-16T08:54:17.461Z,9.41
2019-03-16T08:55:17.431Z,9.44
2019-03-16T08:56:17.408Z,9.44
2019-03-16T08:57:17.390Z,9.40
2019-03-16T08:58:17.382Z,9.45
2019-03-16T08:59:17.353Z,9.48
2019-03-16T09:00:17.336Z,9.42
2019-03-16T09:01:17.320Z,9.52
2019-03-16T09:02:17.292Z,9.47
2019-03-16T09:03:17.287Z,9.55
2019-03-16T09:04:17.247Z,9.52
2019-03-16T09:05:17.228Z,9.60
2019-03-16T09:06:17.222Z,9.69
2019-03-16T09:07:17.187Z,9.65
2019-03-16T09:08:17.166Z,9.60
2019-03-16T09:09:17.149Z,9.67
2019-03-16T09:10:17.126Z,9.72
2019-03-16T09:11:17.112Z,9.66
2019-03-16T09:12:17.093Z,9.75
2019-03-16T09:13:17.077Z,9.78
2019-03-16T09:14:17.043Z,9.75
2019-03-16T09:15:17.024Z,9.73
2019-03-16T09:16:17.013Z,9.91
2019-03-16T09:17:16.986Z,9.85
2019-03-16T09:18:16.967Z,9.90
2019-03-16T09:19:16.946Z,9.96
2019-03-16T09:20:16.917Z,10.09
2019-03-16T09:21:16.909Z,10.12
2019-03-16T09:22:16.898Z,10.10
2019-03-16T09:23:16.869Z,10.18
2019-03-16T09:24:16.836Z,10.21
2019-03-16T09:25:16.823Z,10.21
2019-03-16T09:26:16.806Z,10.21
2019-03-16T09:27:16.794Z,10.38
2019-03-16T09:28:18.808Z,10.41
2019-03-16T09:29:16.742Z,10.36
2019-03-16T09:30:16.737Z,10.39
2019-03-16T09:31:16.696Z,10.36
2019-03-16T09:32:16.675Z,10.48
2019-03-16T09:33:16.798Z,10.52
2019-03-16T09:34:16.636Z,10.58
2019-03-16T09:35:16.618Z,10.62
2019-03-16T09:36:16.593Z,10.72
2019-03-16T09:37:16.578Z,10.78
2019-03-16T09:38:16.649Z,10.82
2019-03-16T09:39:16.538Z,10.90
2019-03-16T09:40:16.514Z,10.93
2019-03-16T09:41:16.501Z,10.95
2019-03-16T09:42:16.473Z,11.05
2019-03-16T09:43:16.458Z,10.94
2019-03-16T09:44:16.436Z,10.98
2019-03-16T09:45:16.430Z,11.04
2019-03-16T09:46:16.415Z,11.09
2019-03-16T09:47:16.375Z,11.08
2019-03-16T09:48:16.351Z,11.16
2019-03-16T09:49:16.340Z,11.09
2019-03-16T09:50:16.314Z,11.12
2019-03-16T09:51:16.292Z,11.27
2019-03-16T09:52:16.292Z,11.25
2019-03-16T09:53:16.255Z,11.28
2019-03-16T09:54:16.241Z,11.37
2019-03-16T09:55:16.215Z,11.33
2019-03-16T09:56:16.200Z,11.38
2019-03-16T09:57:16.177Z,11.43
2019-03-16T09:58:16.153Z,11.51
2019-03-16T09:59:16.133Z,11.52
2019-03-16T10:00:16.117Z,11.40
2019-03-16T10:01:16.102Z,11.49
2019-03-16T10:02:16.080Z,11.46
2019-03-16T10:03:16.055Z,11.46
2019-03-16T10:04:16.034Z,11.52
2019-03-16T10:05:16.023Z,11.52
2019-03-16T10:06:16.000Z,11.58
2019-03-16T10:07:15.984Z,11.59
2019-03-16T10:08:18.961Z,11.67
2019-03-16T10:09:15.949Z,11.61
2019-03-16T10:10:15.923Z,11.59
2019-03-16T10:11:15.900Z,11.61
2019-03-16T10:12:15.885Z,11.71
2019-03-16T10:13:15.877Z,11.73
2019-03-16T10:14:15.851Z,11.70
2019-03-16T10:15:15.840Z,11.70
2019-03-16T10:16:15.803Z,11.71
2019-03-16T10:17:15.779Z,11.69
2019-03-16T10:18:15.764Z,11.69
2019-03-16T10:19:15.740Z,11.73
2019-03-16T10:20:15.719Z,11.73
2019-03-16T10:21:18.615Z,11.69
2019-03-16T10:22:15.680Z,11.69
2019-03-16T10:23:15.661Z,11.69
2019-03-16T10:24:15.643Z,11.62
2019-03-16T10:25:15.630Z,11.62
2019-03-16T10:26:15.609Z,11.66
2019-03-16T10:27:15.588Z,11.74
2019-03-16T10:28:15.566Z,11.70
2019-03-16T10:29:15.553Z,11.67
2019-03-16T10:30:15.531Z,11.67
2019-03-16T10:31:15.510Z,11.62
2019-03-16T10:32:15.486Z,11.64
2019-03-16T10:33:15.469Z,11.62
2019-03-16T10:34:15.452Z,11.61
2019-03-16T10:35:15.441Z,11.67
2019-03-16T10:36:15.407Z,11.52
2019-03-16T10:37:15.392Z,11.61
2019-03-16T10:38:15.371Z,11.61
2019-03-16T10:39:15.348Z,11.61
2019-03-16T10:40:15.338Z,11.58
2019-03-16T10:41:15.315Z,11.58
2019-03-16T10:42:15.293Z,11.55
2019-03-16T10:43:15.277Z,11.55
2019-03-16T10:44:15.256Z,11.52
2019-03-16T10:45:15.235Z,11.54
2019-03-16T10:46:15.213Z,11.49
2019-03-16T10:47:15.193Z,11.55
2019-03-16T10:48:15.176Z,11.55
2019-03-16T10:49:15.159Z,11.55
2019-03-16T10:50:15.142Z,11.49
2019-03-16T10:51:15.119Z,11.58
2019-03-16T10:52:15.111Z,11.49
2019-03-16T10:53:15.074Z,11.56
2019-03-16T10:54:15.061Z,11.58
2019-03-16T10:55:15.048Z,11.54
2019-03-16T10:56:15.020Z,11.55
2019-03-16T10:57:14.995Z,11.51
2019-03-16T10:58:14.982Z,11.56
2019-03-16T10:59:14.964Z,11.49
2019-03-16T11:00:14.939Z,11.54
2019-03-16T11:01:14.921Z,11.54
2019-03-16T11:02:14.901Z,11.49
2019-03-16T11:03:14.883Z,11.54
2019-03-16T11:04:14.861Z,11.55
2019-03-16T11:05:14.847Z,11.55
2019-03-16T11:06:14.822Z,11.51
2019-03-16T11:07:14.800Z,11.55
2019-03-16T11:08:14.786Z,11.55
2019-03-16T11:09:14.767Z,11.59
2019-03-16T11:10:14.743Z,11.59
2019-03-16T11:11:14.726Z,11.62
2019-03-16T11:12:14.712Z,11.58
2019-03-16T11:13:14.684Z,11.59
2019-03-16T11:14:14.667Z,11.59
2019-03-16T11:15:14.648Z,11.61
2019-03-16T11:16:14.626Z,11.56
2019-03-16T11:17:14.608Z,11.61
2019-03-16T11:18:14.594Z,11.64
2019-03-16T11:19:14.569Z,11.69
2019-03-16T11:20:14.556Z,11.62
2019-03-16T11:21:14.529Z,11.70
2019-03-16T11:22:14.508Z,11.69
2019-03-16T11:23:14.488Z,11.76
2019-03-16T11:24:14.466Z,11.74
2019-03-16T11:25:14.449Z,11.74
2019-03-16T11:26:14.437Z,11.74
2019-03-16T11:27:16.968Z,11.84
2019-03-16T11:28:14.400Z,11.71
2019-03-16T11:29:14.371Z,11.89
2019-03-16T11:30:14.358Z,11.87
2019-03-16T11:31:14.332Z,11.87
2019-03-16T11:32:14.321Z,11.89
2019-03-16T11:33:14.300Z,11.84
2019-03-16T11:34:14.279Z,11.84
2019-03-16T11:35:14.252Z,11.85
2019-03-16T11:36:14.243Z,11.88
2019-03-16T11:37:14.214Z,11.87
2019-03-16T11:38:14.202Z,11.88
2019-03-16T11:39:14.177Z,11.84
2019-03-16T11:40:14.156Z,11.89
2019-03-16T11:41:14.140Z,11.88
2019-03-16T11:42:14.121Z,11.95
2019-03-16T11:43:14.105Z,11.95
2019-03-16T11:44:14.075Z,11.89
2019-03-16T11:45:16.874Z,11.95
2019-03-16T11:46:14.036Z,12.04
2019-03-16T11:47:14.017Z,11.99
2019-03-16T11:48:13.998Z,12.03
2019-03-16T11:49:13.981Z,12.10
2019-03-16T11:50:13.962Z,12.08
2019-03-16T11:51:13.942Z,12.08
2019-03-16T11:52:13.922Z,12.15
2019-03-16T11:53:13.903Z,12.18
2019-03-16T11:54:13.885Z,12.17
2019-03-16T11:55:13.874Z,12.17
2019-03-16T11:56:18.212Z,12.18
2019-03-16T11:57:13.830Z,12.18
2019-03-16T11:58:13.818Z,12.18
2019-03-16T11:59:21.502Z,12.17
2019-03-16T12:00:13.779Z,12.17
2019-03-16T12:01:13.763Z,12.14
2019-03-16T12:02:13.734Z,12.18
2019-03-16T12:03:13.720Z,12.29
2019-03-16T12:04:13.691Z,12.21
2019-03-16T12:05:13.680Z,12.26
2019-03-16T12:06:13.661Z,12.28
2019-03-16T12:07:13.659Z,12.26
2019-03-16T12:08:13.630Z,12.25
2019-03-16T12:09:13.603Z,12.30
2019-03-16T12:10:13.580Z,12.25
2019-03-16T12:11:13.561Z,12.30
2019-03-16T12:12:13.537Z,12.30
2019-03-16T12:13:17.749Z,12.28
2019-03-16T12:14:13.553Z,12.28
2019-03-16T12:15:13.486Z,12.30
2019-03-16T12:16:13.463Z,12.32
2019-03-16T12:17:13.444Z,12.29
2019-03-16T12:18:13.426Z,12.29
2019-03-16T12:19:13.404Z,12.28
2019-03-16T12:20:13.406Z,12.29
2019-03-16T12:21:13.372Z,12.30
2019-03-16T12:22:13.351Z,12.35
2019-03-16T12:23:13.337Z,12.28
2019-03-16T12:24:13.311Z,12.33
2019-03-16T12:25:13.295Z,12.32
2019-03-16T12:26:13.274Z,12.30
2019-03-16T12:27:13.251Z,12.35
2019-03-16T12:28:13.245Z,12.43
2019-03-16T12:29:13.228Z,12.46
2019-03-16T12:30:13.204Z,12.47
2019-03-16T12:31:13.178Z,12.46
2019-03-16T12:32:13.169Z,12.46
2019-03-16T12:33:13.137Z,12.53
2019-03-16T12:34:13.118Z,12.48
2019-03-16T12:35:13.100Z,12.48
2019-03-16T12:36:13.082Z,12.48
2019-03-16T12:37:13.062Z,12.48
2019-03-16T12:38:13.050Z,12.48
2019-03-16T12:39:13.055Z,12.47
2019-03-16T12:40:13.012Z,12.50
2019-03-16T12:41:12.983Z,12.47
2019-03-16T12:42:12.971Z,12.48
2019-03-16T12:43:12.944Z,12.48
2019-03-16T12:44:12.980Z,12.53
2019-03-16T12:45:12.911Z,12.50
2019-03-16T12:46:12.895Z,12.47
2019-03-16T12:47:12.870Z,12.44
2019-03-16T12:48:12.854Z,12.44
2019-03-16T12:49:12.832Z,12.47
2019-03-16T12:50:12.823Z,12.41
2019-03-16T12:51:12.793Z,12.47
2019-03-16T12:52:12.774Z,12.44
2019-03-16T12:53:12.756Z,12.51
2019-03-16T12:54:12.741Z,12.46
2019-03-16T12:55:12.718Z,12.54
2019-03-16T12:56:12.694Z,12.55
2019-03-16T12:57:12.679Z,12.62
2019-03-16T12:58:12.657Z,12.61
2019-03-16T12:59:12.642Z,12.63
2019-03-16T13:00:12.627Z,12.58
2019-03-16T13:01:12.906Z,12.65
2019-03-16T13:02:12.584Z,12.55
2019-03-16T13:03:12.568Z,12.59
2019-03-16T13:04:12.551Z,12.62
2019-03-16T13:05:12.533Z,12.58
2019-03-16T13:06:12.506Z,12.59
2019-03-16T13:07:12.489Z,12.63
2019-03-16T13:08:12.476Z,12.63
2019-03-16T13:09:12.453Z,12.66
2019-03-16T13:10:12.433Z,12.73